sensor_id;sensor_type;location;lat;lon;timestamp;pressure;altitude;pressure_sealevel;temperature;humidity
2675;BME280;1347;42.122;24.746;2023-11-21T00:01:19;99321.63;;;10.08;64.42
2675;BME280;1347;42.122;24.746;2023-11-21T00:03:47;99330.63;;;10.08;64.69
2675;BME280;1347;42.122;24.746;2023-11-21T00:06:15;99325.53;;;10.07;64.47
2675;BME280;1347;42.122;24.746;2023-11-21T00:08:43;99339.97;;;10.04;65.72
2675;BME280;1347;42.122;24.746;2023-11-21T00:11:10;99339.09;;;9.96;66.61
2675;BME280;1347;42.122;24.746;2023-11-21T00:13:37;99339.13;;;10.00;66.42
2675;BME280;1347;42.122;24.746;2023-11-21T00:16:05;99342.91;;;9.91;68.18
2675;BME280;1347;42.122;24.746;2023-11-21T00:18:32;99346.06;;;9.93;67.76
2675;BME280;1347;42.122;24.746;2023-11-21T00:21:01;99340.19;;;9.91;68.25
2675;BME280;1347;42.122;24.746;2023-11-21T00:23:29;99340.50;;;9.86;68.64
2675;BME280;1347;42.122;24.746;2023-11-21T00:25:55;99332.28;;;9.86;68.81
2675;BME280;1347;42.122;24.746;2023-11-21T00:28:22;99329.00;;;9.77;69.39
2675;BME280;1347;42.122;24.746;2023-11-21T00:30:50;99330.72;;;9.85;69.42
2675;BME280;1347;42.122;24.746;2023-11-21T00:33:17;99324.81;;;9.83;69.08
2675;BME280;1347;42.122;24.746;2023-11-21T00:35:44;99325.59;;;9.84;68.58
2675;BME280;1347;42.122;24.746;2023-11-21T00:38:12;99322.28;;;9.71;70.26
2675;BME280;1347;42.122;24.746;2023-11-21T00:40:39;99321.66;;;9.55;72.11
2675;BME280;1347;42.122;24.746;2023-11-21T00:43:06;99320.06;;;9.54;71.89
2675;BME280;1347;42.122;24.746;2023-11-21T00:45:32;99325.66;;;9.38;72.43
2675;BME280;1347;42.122;24.746;2023-11-21T00:48:02;99328.00;;;9.36;72.90
2675;BME280;1347;42.122;24.746;2023-11-21T00:50:30;99333.94;;;9.19;74.31
2675;BME280;1347;42.122;24.746;2023-11-21T00:52:57;99331.00;;;9.08;75.47
2675;BME280;1347;42.122;24.746;2023-11-21T00:55:25;99327.06;;;9.06;75.42
2675;BME280;1347;42.122;24.746;2023-11-21T00:57:53;99323.97;;;8.84;75.86
2675;BME280;1347;42.122;24.746;2023-11-21T01:00:20;99335.84;;;8.73;76.97
2675;BME280;1347;42.122;24.746;2023-11-21T01:02:47;99331.97;;;8.74;76.62
2675;BME280;1347;42.122;24.746;2023-11-21T01:05:14;99330.81;;;8.75;76.37
2675;BME280;1347;42.122;24.746;2023-11-21T01:07:41;99332.00;;;8.77;75.95
2675;BME280;1347;42.122;24.746;2023-11-21T01:10:08;99327.66;;;8.73;76.90
2675;BME280;1347;42.122;24.746;2023-11-21T01:12:37;99328.72;;;8.68;77.26
2675;BME280;1347;42.122;24.746;2023-11-21T01:15:06;99336.06;;;8.64;76.93
2675;BME280;1347;42.122;24.746;2023-11-21T01:17:34;99338.59;;;8.54;77.48
2675;BME280;1347;42.122;24.746;2023-11-21T01:20:00;99334.06;;;8.42;78.26
2675;BME280;1347;42.122;24.746;2023-11-21T01:22:28;99332.91;;;8.43;78.38
2675;BME280;1347;42.122;24.746;2023-11-21T01:24:55;99334.50;;;8.44;78.47
2675;BME280;1347;42.122;24.746;2023-11-21T01:27:22;99321.63;;;8.44;78.89
2675;BME280;1347;42.122;24.746;2023-11-21T01:29:50;99326.31;;;8.44;79.70
2675;BME280;1347;42.122;24.746;2023-11-21T01:32:19;99328.59;;;8.42;80.34
2675;BME280;1347;42.122;24.746;2023-11-21T01:34:45;99333.25;;;8.41;80.59
2675;BME280;1347;42.122;24.746;2023-11-21T01:37:12;99328.88;;;8.37;81.30
2675;BME280;1347;42.122;24.746;2023-11-21T01:39:39;99327.72;;;8.38;81.56
2675;BME280;1347;42.122;24.746;2023-11-21T01:42:06;99330.28;;;8.31;82.28
2675;BME280;1347;42.122;24.746;2023-11-21T01:44:33;99322.94;;;8.16;84.12
2675;BME280;1347;42.122;24.746;2023-11-21T01:47:02;99329.34;;;7.88;84.29
2675;BME280;1347;42.122;24.746;2023-11-21T01:49:31;99326.69;;;7.72;85.37
2675;BME280;1347;42.122;24.746;2023-11-21T01:51:59;99332.84;;;7.54;85.93
2675;BME280;1347;42.122;24.746;2023-11-21T01:54:26;99328.38;;;7.46;86.68
2675;BME280;1347;42.122;24.746;2023-11-21T01:56:57;99324.84;;;7.45;87.00
2675;BME280;1347;42.122;24.746;2023-11-21T01:59:29;99327.16;;;7.27;88.61
2675;BME280;1347;42.122;24.746;2023-11-21T02:01:58;99325.56;;;7.26;88.26
2675;BME280;1347;42.122;24.746;2023-11-21T02:04:26;99322.13;;;7.14;88.81
2675;BME280;1347;42.122;24.746;2023-11-21T02:06:53;99316.91;;;6.93;90.91
2675;BME280;1347;42.122;24.746;2023-11-21T02:09:24;99315.53;;;6.99;90.90
2675;BME280;1347;42.122;24.746;2023-11-21T02:11:52;99315.22;;;6.73;92.47
2675;BME280;1347;42.122;24.746;2023-11-21T02:14:19;99321.09;;;6.75;93.23
2675;BME280;1347;42.122;24.746;2023-11-21T02:16:48;99312.50;;;6.73;93.49
2675;BME280;1347;42.122;24.746;2023-11-21T02:19:18;99319.00;;;6.68;93.86
2675;BME280;1347;42.122;24.746;2023-11-21T02:21:49;99317.63;;;6.46;95.01
2675;BME280;1347;42.122;24.746;2023-11-21T02:24:19;99321.63;;;6.37;95.90
2675;BME280;1347;42.122;24.746;2023-11-21T02:26:46;99327.22;;;6.28;96.50
2675;BME280;1347;42.122;24.746;2023-11-21T02:29:13;99319.72;;;5.97;97.93
2675;BME280;1347;42.122;24.746;2023-11-21T02:31:43;99320.47;;;5.85;99.14
2675;BME280;1347;42.122;24.746;2023-11-21T02:34:13;99326.50;;;5.91;98.77
2675;BME280;1347;42.122;24.746;2023-11-21T02:36:40;99326.63;;;5.95;98.66
2675;BME280;1347;42.122;24.746;2023-11-21T02:39:08;99320.59;;;6.01;98.14
2675;BME280;1347;42.122;24.746;2023-11-21T02:41:37;99318.53;;;6.10;97.57
2675;BME280;1347;42.122;24.746;2023-11-21T02:44:04;99313.66;;;6.04;97.65
2675;BME280;1347;42.122;24.746;2023-11-21T02:46:32;99311.63;;;6.01;98.01
2675;BME280;1347;42.122;24.746;2023-11-21T02:49:00;99316.59;;;6.11;97.30
2675;BME280;1347;42.122;24.746;2023-11-21T02:51:27;99316.69;;;6.14;96.88
2675;BME280;1347;42.122;24.746;2023-11-21T02:53:54;99324.97;;;6.18;96.73
2675;BME280;1347;42.122;24.746;2023-11-21T02:56:24;99324.88;;;6.14;96.75
2675;BME280;1347;42.122;24.746;2023-11-21T02:58:52;99333.47;;;6.16;96.83
2675;BME280;1347;42.122;24.746;2023-11-21T03:01:19;99333.28;;;6.09;96.97
2675;BME280;1347;42.122;24.746;2023-11-21T03:03:46;99332.84;;;5.95;97.26
2675;BME280;1347;42.122;24.746;2023-11-21T03:06:16;99333.31;;;5.97;97.08
2675;BME280;1347;42.122;24.746;2023-11-21T03:08:43;99326.72;;;5.98;97.01
2675;BME280;1347;42.122;24.746;2023-11-21T03:11:10;99334.41;;;6.08;96.72
2675;BME280;1347;42.122;24.746;2023-11-21T03:13:38;99333.97;;;6.06;97.51
2675;BME280;1347;42.122;24.746;2023-11-21T03:16:08;99333.63;;;6.08;98.21
2675;BME280;1347;42.122;24.746;2023-11-21T03:18:35;99330.09;;;6.07;98.48
2675;BME280;1347;42.122;24.746;2023-11-21T03:21:03;99329.00;;;5.96;98.83
2675;BME280;1347;42.122;24.746;2023-11-21T03:23:30;99330.38;;;5.90;99.51
2675;BME280;1347;42.122;24.746;2023-11-21T03:25:56;99338.97;;;5.92;99.44
2675;BME280;1347;42.122;24.746;2023-11-21T03:28:23;99329.44;;;5.86;99.96
2675;BME280;1347;42.122;24.746;2023-11-21T03:30:50;99327.72;;;5.81;99.93
2675;BME280;1347;42.122;24.746;2023-11-21T03:33:18;99329.09;;;5.75;100.00
2675;BME280;1347;42.122;24.746;2023-11-21T03:35:45;99339.78;;;5.68;100.00
2675;BME280;1347;42.122;24.746;2023-11-21T03:38:12;99337.16;;;5.72;100.00
2675;BME280;1347;42.122;24.746;2023-11-21T03:40:39;99333.75;;;5.75;100.00
2675;BME280;1347;42.122;24.746;2023-11-21T03:43:06;99329.22;;;5.79;100.00
2675;BME280;1347;42.122;24.746;2023-11-21T03:45:33;99327.19;;;5.88;100.00
2675;BME280;1347;42.122;24.746;2023-11-21T03:48:00;99331.16;;;5.78;100.00
2675;BME280;1347;42.122;24.746;2023-11-21T03:50:29;99335.69;;;5.74;100.00
2675;BME280;1347;42.122;24.746;2023-11-21T03:52:57;99330.03;;;5.79;100.00
2675;BME280;1347;42.122;24.746;2023-11-21T03:55:23;99342.16;;;5.94;100.00
2675;BME280;1347;42.122;24.746;2023-11-21T03:57:51;99339.41;;;5.94;100.00
2675;BME280;1347;42.122;24.746;2023-11-21T04:00:19;99348.72;;;5.93;100.00
2675;BME280;1347;42.122;24.746;2023-11-21T04:02:46;99344.31;;;5.88;100.00
2675;BME280;1347;42.122;24.746;2023-11-21T04:05:13;99348.13;;;5.87;100.00
2675;BME280;1347;42.122;24.746;2023-11-21T04:07:41;99342.41;;;5.89;100.00
2675;BME280;1347;42.122;24.746;2023-11-21T04:10:09;99355.75;;;5.94;100.00
2675;BME280;1347;42.122;24.746;2023-11-21T04:12:38;99344.66;;;5.99;100.00
2675;BME280;1347;42.122;24.746;2023-11-21T04:15:06;99332.19;;;5.98;100.00
2675;BME280;1347;42.122;24.746;2023-11-21T04:17:34;99347.78;;;6.01;100.00
2675;BME280;1347;42.122;24.746;2023-11-21T04:20:02;99354.25;;;5.84;100.00
2675;BME280;1347;42.122;24.746;2023-11-21T04:22:31;99346.78;;;5.81;100.00
2675;BME280;1347;42.122;24.746;2023-11-21T04:24:59;99342.97;;;5.58;100.00
2675;BME280;1347;42.122;24.746;2023-11-21T04:27:26;99345.00;;;5.49;100.00
2675;BME280;1347;42.122;24.746;2023-11-21T04:29:53;99355.97;;;5.52;100.00
2675;BME280;1347;42.122;24.746;2023-11-21T04:32:20;99362.31;;;5.44;100.00
2675;BME280;1347;42.122;24.746;2023-11-21T04:34:47;99351.44;;;5.44;100.00
2675;BME280;1347;42.122;24.746;2023-11-21T04:37:14;99349.84;;;5.43;100.00
2675;BME280;1347;42.122;24.746;2023-11-21T04:39:41;99345.78;;;5.49;100.00
2675;BME280;1347;42.122;24.746;2023-11-21T04:42:09;99353.84;;;5.58;100.00
2675;BME280;1347;42.122;24.746;2023-11-21T04:44:36;99358.69;;;5.65;100.00
2675;BME280;1347;42.122;24.746;2023-11-21T04:47:03;99358.34;;;5.66;100.00
2675;BME280;1347;42.122;24.746;2023-11-21T04:49:30;99357.78;;;5.73;100.00
2675;BME280;1347;42.122;24.746;2023-11-21T04:51:57;99365.13;;;5.72;100.00
2675;BME280;1347;42.122;24.746;2023-11-21T04:54:24;99350.41;;;5.73;100.00
2675;BME280;1347;42.122;24.746;2023-11-21T04:56:51;99362.09;;;5.74;100.00
2675;BME280;1347;42.122;24.746;2023-11-21T04:59:19;99359.03;;;5.75;100.00
2675;BME280;1347;42.122;24.746;2023-11-21T05:01:46;99350.06;;;5.75;100.00
2675;BME280;1347;42.122;24.746;2023-11-21T05:04:13;99348.50;;;5.74;100.00
2675;BME280;1347;42.122;24.746;2023-11-21T05:06:40;99341.56;;;5.76;100.00
2675;BME280;1347;42.122;24.746;2023-11-21T05:09:07;99342.69;;;5.87;100.00
2675;BME280;1347;42.122;24.746;2023-11-21T05:11:37;99354.94;;;5.81;100.00
2675;BME280;1347;42.122;24.746;2023-11-21T05:14:06;99368.78;;;5.76;100.00
2675;BME280;1347;42.122;24.746;2023-11-21T05:16:35;99375.00;;;5.77;100.00
2675;BME280;1347;42.122;24.746;2023-11-21T05:19:03;99364.47;;;5.63;100.00
2675;BME280;1347;42.122;24.746;2023-11-21T05:21:31;99363.22;;;5.61;100.00
2675;BME280;1347;42.122;24.746;2023-11-21T05:23:58;99369.56;;;5.52;100.00
2675;BME280;1347;42.122;24.746;2023-11-21T05:26:25;99367.41;;;5.46;100.00
2675;BME280;1347;42.122;24.746;2023-11-21T05:28:52;99371.56;;;5.31;100.00
2675;BME280;1347;42.122;24.746;2023-11-21T05:31:19;99368.44;;;5.29;100.00
2675;BME280;1347;42.122;24.746;2023-11-21T05:33:47;99360.81;;;5.23;100.00
2675;BME280;1347;42.122;24.746;2023-11-21T05:36:14;99361.41;;;5.28;100.00
2675;BME280;1347;42.122;24.746;2023-11-21T05:38:40;99368.28;;;5.26;100.00
2675;BME280;1347;42.122;24.746;2023-11-21T05:41:08;99376.56;;;5.17;100.00
2675;BME280;1347;42.122;24.746;2023-11-21T05:43:36;99371.59;;;5.19;100.00
2675;BME280;1347;42.122;24.746;2023-11-21T05:46:03;99375.78;;;5.29;100.00
2675;BME280;1347;42.122;24.746;2023-11-21T05:48:31;99377.38;;;5.42;100.00
2675;BME280;1347;42.122;24.746;2023-11-21T05:50:59;99380.44;;;5.52;100.00
2675;BME280;1347;42.122;24.746;2023-11-21T05:53:27;99371.63;;;5.68;100.00
2675;BME280;1347;42.122;24.746;2023-11-21T05:55:54;99371.16;;;5.66;100.00
2675;BME280;1347;42.122;24.746;2023-11-21T05:58:21;99375.13;;;5.68;100.00
2675;BME280;1347;42.122;24.746;2023-11-21T06:00:48;99369.22;;;5.54;100.00
2675;BME280;1347;42.122;24.746;2023-11-21T06:03:15;99380.66;;;5.47;100.00
2675;BME280;1347;42.122;24.746;2023-11-21T06:05:42;99379.97;;;5.63;100.00
2675;BME280;1347;42.122;24.746;2023-11-21T06:08:11;99385.09;;;5.64;100.00
2675;BME280;1347;42.122;24.746;2023-11-21T06:10:38;99392.53;;;5.43;100.00
2675;BME280;1347;42.122;24.746;2023-11-21T06:13:05;99385.06;;;5.52;100.00
2675;BME280;1347;42.122;24.746;2023-11-21T06:15:32;99387.69;;;5.48;100.00
2675;BME280;1347;42.122;24.746;2023-11-21T06:17:59;99378.50;;;5.53;100.00
2675;BME280;1347;42.122;24.746;2023-11-21T06:20:26;99378.84;;;5.76;100.00
2675;BME280;1347;42.122;24.746;2023-11-21T06:22:53;99386.13;;;5.96;100.00
2675;BME280;1347;42.122;24.746;2023-11-21T06:25:22;99380.88;;;6.15;100.00
2675;BME280;1347;42.122;24.746;2023-11-21T06:27:50;99386.84;;;6.33;99.19
2675;BME280;1347;42.122;24.746;2023-11-21T06:30:17;99387.59;;;6.58;99.54
2675;BME280;1347;42.122;24.746;2023-11-21T06:32:44;99378.59;;;6.85;98.29
2675;BME280;1347;42.122;24.746;2023-11-21T06:35:12;99387.03;;;6.80;97.11
2675;BME280;1347;42.122;24.746;2023-11-21T06:37:40;99384.50;;;6.87;96.89
2675;BME280;1347;42.122;24.746;2023-11-21T06:40:13;99380.66;;;7.04;96.48
2675;BME280;1347;42.122;24.746;2023-11-21T06:42:42;99389.59;;;7.32;95.29
2675;BME280;1347;42.122;24.746;2023-11-21T06:45:10;99386.00;;;7.60;94.18
2675;BME280;1347;42.122;24.746;2023-11-21T06:47:37;99386.97;;;7.83;93.61
2675;BME280;1347;42.122;24.746;2023-11-21T06:50:05;99390.00;;;7.97;91.78
2675;BME280;1347;42.122;24.746;2023-11-21T06:52:32;99372.88;;;8.16;90.86
2675;BME280;1347;42.122;24.746;2023-11-21T06:54:59;99381.19;;;8.39;90.05
2675;BME280;1347;42.122;24.746;2023-11-21T06:57:27;99376.09;;;8.57;87.78
2675;BME280;1347;42.122;24.746;2023-11-21T06:59:55;99393.50;;;8.68;86.25
2675;BME280;1347;42.122;24.746;2023-11-21T07:02:22;99389.03;;;8.79;85.29
2675;BME280;1347;42.122;24.746;2023-11-21T07:04:49;99395.06;;;8.88;83.77
2675;BME280;1347;42.122;24.746;2023-11-21T07:07:17;99394.34;;;9.10;83.64
2675;BME280;1347;42.122;24.746;2023-11-21T07:09:44;99397.81;;;9.30;82.63
2675;BME280;1347;42.122;24.746;2023-11-21T07:12:11;99398.91;;;9.48;81.04
2675;BME280;1347;42.122;24.746;2023-11-21T07:14:38;99397.81;;;9.76;80.42
2675;BME280;1347;42.122;24.746;2023-11-21T07:17:10;99405.84;;;9.42;78.96
2675;BME280;1347;42.122;24.746;2023-11-21T07:19:37;99405.34;;;9.37;79.09
2675;BME280;1347;42.122;24.746;2023-11-21T07:22:04;99402.16;;;9.77;78.82
2675;BME280;1347;42.122;24.746;2023-11-21T07:24:32;99405.34;;;10.09;76.67
2675;BME280;1347;42.122;24.746;2023-11-21T07:26:58;99407.25;;;10.27;76.19
2675;BME280;1347;42.122;24.746;2023-11-21T07:29:26;99401.03;;;10.60;75.41
2675;BME280;1347;42.122;24.746;2023-11-21T07:31:55;99405.56;;;11.97;73.99
2675;BME280;1347;42.122;24.746;2023-11-21T07:34:23;99405.31;;;14.84;64.58
2675;BME280;1347;42.122;24.746;2023-11-21T07:36:50;99404.81;;;16.59;53.15
2675;BME280;1347;42.122;24.746;2023-11-21T07:39:17;99409.75;;;19.87;47.60
2675;BME280;1347;42.122;24.746;2023-11-21T07:41:44;99413.63;;;21.37;43.38
2675;BME280;1347;42.122;24.746;2023-11-21T07:44:14;99416.50;;;21.34;40.78
2675;BME280;1347;42.122;24.746;2023-11-21T07:46:41;99419.13;;;22.26;40.14
2675;BME280;1347;42.122;24.746;2023-11-21T07:49:08;99427.50;;;23.97;37.55
2675;BME280;1347;42.122;24.746;2023-11-21T07:51:36;99426.63;;;24.18;36.54
2675;BME280;1347;42.122;24.746;2023-11-21T07:54:04;99430.09;;;24.86;34.93
2675;BME280;1347;42.122;24.746;2023-11-21T07:56:31;99428.00;;;24.13;35.73
2675;BME280;1347;42.122;24.746;2023-11-21T07:58:58;99438.44;;;23.11;35.55
2675;BME280;1347;42.122;24.746;2023-11-21T08:01:25;99430.94;;;22.77;35.28
2675;BME280;1347;42.122;24.746;2023-11-21T08:03:53;99428.06;;;25.05;34.21
2675;BME280;1347;42.122;24.746;2023-11-21T08:06:23;99425.63;;;25.49;32.76
2675;BME280;1347;42.122;24.746;2023-11-21T08:08:52;99433.97;;;24.34;34.62
2675;BME280;1347;42.122;24.746;2023-11-21T08:11:19;99430.59;;;24.48;34.05
2675;BME280;1347;42.122;24.746;2023-11-21T08:13:46;99425.22;;;21.86;36.84
2675;BME280;1347;42.122;24.746;2023-11-21T08:16:14;99422.50;;;21.19;38.07
2675;BME280;1347;42.122;24.746;2023-11-21T08:18:42;99415.38;;;19.99;39.94
2675;BME280;1347;42.122;24.746;2023-11-21T08:21:09;99412.94;;;21.71;38.28
2675;BME280;1347;42.122;24.746;2023-11-21T08:23:37;99426.00;;;21.61;37.55
2675;BME280;1347;42.122;24.746;2023-11-21T08:26:06;99424.09;;;21.46;38.12
2675;BME280;1347;42.122;24.746;2023-11-21T08:28:34;99419.28;;;20.18;39.43
2675;BME280;1347;42.122;24.746;2023-11-21T08:31:01;99412.53;;;20.35;39.41
2675;BME280;1347;42.122;24.746;2023-11-21T08:33:28;99412.00;;;20.24;39.81
2675;BME280;1347;42.122;24.746;2023-11-21T08:35:55;99407.41;;;20.01;39.80
2675;BME280;1347;42.122;24.746;2023-11-21T08:38:22;99387.69;;;18.71;41.84
2675;BME280;1347;42.122;24.746;2023-11-21T08:40:49;99392.16;;;16.20;46.57
2675;BME280;1347;42.122;24.746;2023-11-21T08:43:17;99391.53;;;16.43;46.85
2675;BME280;1347;42.122;24.746;2023-11-21T08:45:45;99392.91;;;16.24;47.28
2675;BME280;1347;42.122;24.746;2023-11-21T08:48:12;99393.09;;;16.44;47.52
2675;BME280;1347;42.122;24.746;2023-11-21T08:50:39;99385.34;;;15.28;51.01
2675;BME280;1347;42.122;24.746;2023-11-21T08:53:06;99374.44;;;15.07;51.69
2675;BME280;1347;42.122;24.746;2023-11-21T08:55:33;99371.28;;;15.08;51.93
2675;BME280;1347;42.122;24.746;2023-11-21T08:58:02;99360.63;;;15.10;51.97
2675;BME280;1347;42.122;24.746;2023-11-21T09:00:32;99359.25;;;14.67;52.32
2675;BME280;1347;42.122;24.746;2023-11-21T09:02:59;99353.44;;;14.26;53.76
2675;BME280;1347;42.122;24.746;2023-11-21T09:05:27;99350.34;;;14.10;54.12
2675;BME280;1347;42.122;24.746;2023-11-21T09:07:54;99353.50;;;14.05;54.04
2675;BME280;1347;42.122;24.746;2023-11-21T09:10:21;99343.25;;;14.09;54.60
2675;BME280;1347;42.122;24.746;2023-11-21T09:12:50;99336.47;;;14.49;53.59
2675;BME280;1347;42.122;24.746;2023-11-21T09:15:18;99330.88;;;14.66;53.34
2675;BME280;1347;42.122;24.746;2023-11-21T09:17:47;99323.97;;;14.09;54.33
2675;BME280;1347;42.122;24.746;2023-11-21T09:20:14;99327.44;;;14.37;54.58
2675;BME280;1347;42.122;24.746;2023-11-21T09:22:41;99324.59;;;14.62;53.31
2675;BME280;1347;42.122;24.746;2023-11-21T09:25:10;99319.50;;;14.57;53.86
2675;BME280;1347;42.122;24.746;2023-11-21T09:27:38;99310.22;;;13.94;55.08
2675;BME280;1347;42.122;24.746;2023-11-21T09:30:06;99303.94;;;13.90;56.06
2675;BME280;1347;42.122;24.746;2023-11-21T09:32:35;99308.84;;;14.56;54.72
2675;BME280;1347;42.122;24.746;2023-11-21T09:35:04;99301.25;;;14.78;52.87
2675;BME280;1347;42.122;24.746;2023-11-21T09:37:33;99303.78;;;15.17;52.32
2675;BME280;1347;42.122;24.746;2023-11-21T09:40:01;99302.31;;;14.98;52.77
2675;BME280;1347;42.122;24.746;2023-11-21T09:42:36;99303.75;;;15.24;51.59
2675;BME280;1347;42.122;24.746;2023-11-21T09:45:05;99300.16;;;14.64;52.94
2675;BME280;1347;42.122;24.746;2023-11-21T09:47:38;99297.09;;;15.14;52.26
2675;BME280;1347;42.122;24.746;2023-11-21T09:50:07;99301.75;;;15.24;51.87
2675;BME280;1347;42.122;24.746;2023-11-21T09:52:44;99293.00;;;15.33;51.50
2675;BME280;1347;42.122;24.746;2023-11-21T09:55:16;99297.69;;;15.39;51.52
2675;BME280;1347;42.122;24.746;2023-11-21T09:57:47;99272.91;;;15.29;52.04
2675;BME280;1347;42.122;24.746;2023-11-21T10:00:15;99280.72;;;15.37;51.47
2675;BME280;1347;42.122;24.746;2023-11-21T10:02:44;99278.97;;;15.09;52.36
2675;BME280;1347;42.122;24.746;2023-11-21T10:05:13;99270.06;;;14.04;55.56
2675;BME280;1347;42.122;24.746;2023-11-21T10:07:42;99260.84;;;14.46;54.49
2675;BME280;1347;42.122;24.746;2023-11-21T10:10:10;99252.16;;;14.55;54.34
2675;BME280;1347;42.122;24.746;2023-11-21T10:12:38;99241.63;;;14.21;53.65
2675;BME280;1347;42.122;24.746;2023-11-21T10:15:08;99234.75;;;14.65;53.43
2675;BME280;1347;42.122;24.746;2023-11-21T10:17:38;99235.09;;;14.70;52.52
2675;BME280;1347;42.122;24.746;2023-11-21T10:20:10;99231.31;;;14.40;53.24
2675;BME280;1347;42.122;24.746;2023-11-21T10:22:41;99225.72;;;13.24;56.33
2675;BME280;1347;42.122;24.746;2023-11-21T10:25:08;99224.94;;;13.16;56.69
2675;BME280;1347;42.122;24.746;2023-11-21T10:27:36;99228.81;;;13.69;56.09
2675;BME280;1347;42.122;24.746;2023-11-21T10:30:05;99221.91;;;14.30;54.66
2675;BME280;1347;42.122;24.746;2023-11-21T10:32:33;99229.59;;;14.67;54.26
2675;BME280;1347;42.122;24.746;2023-11-21T10:35:00;99229.03;;;14.93;52.59
2675;BME280;1347;42.122;24.746;2023-11-21T10:37:31;99218.03;;;14.13;54.67
2675;BME280;1347;42.122;24.746;2023-11-21T10:40:00;99209.91;;;13.81;55.21
2675;BME280;1347;42.122;24.746;2023-11-21T10:42:27;99211.84;;;13.77;55.72
2675;BME280;1347;42.122;24.746;2023-11-21T10:44:54;99210.56;;;14.07;54.29
2675;BME280;1347;42.122;24.746;2023-11-21T10:47:21;99212.66;;;13.78;54.94
2675;BME280;1347;42.122;24.746;2023-11-21T10:49:49;99199.59;;;13.96;55.55
2675;BME280;1347;42.122;24.746;2023-11-21T10:52:19;99206.44;;;14.50;54.10
2675;BME280;1347;42.122;24.746;2023-11-21T10:54:46;99201.19;;;14.73;53.28
2675;BME280;1347;42.122;24.746;2023-11-21T10:57:17;99200.81;;;14.68;53.66
2675;BME280;1347;42.122;24.746;2023-11-21T10:59:46;99200.03;;;14.67;53.77
2675;BME280;1347;42.122;24.746;2023-11-21T11:02:23;99201.59;;;14.72;53.82
2675;BME280;1347;42.122;24.746;2023-11-21T11:04:53;99195.81;;;14.52;53.25
2675;BME280;1347;42.122;24.746;2023-11-21T11:07:21;99183.25;;;14.44;53.51
2675;BME280;1347;42.122;24.746;2023-11-21T11:09:53;99175.66;;;13.75;55.15
2675;BME280;1347;42.122;24.746;2023-11-21T11:12:21;99168.78;;;14.19;54.80
2675;BME280;1347;42.122;24.746;2023-11-21T11:14:48;99176.44;;;14.59;53.81
2675;BME280;1347;42.122;24.746;2023-11-21T11:17:16;99166.47;;;14.10;55.00
2675;BME280;1347;42.122;24.746;2023-11-21T11:19:46;99159.94;;;13.65;55.78
2675;BME280;1347;42.122;24.746;2023-11-21T11:22:24;99157.25;;;13.47;57.32
2675;BME280;1347;42.122;24.746;2023-11-21T11:25:20;99138.53;;;14.05;55.14
2675;BME280;1347;42.122;24.746;2023-11-21T11:27:59;99135.25;;;14.27;54.36
2675;BME280;1347;42.122;24.746;2023-11-21T11:30:39;99138.47;;;14.19;55.47
2675;BME280;1347;42.122;24.746;2023-11-21T11:33:18;99117.47;;;13.66;56.46
2675;BME280;1347;42.122;24.746;2023-11-21T11:35:57;99104.47;;;13.70;56.65
2675;BME280;1347;42.122;24.746;2023-11-21T11:38:31;99090.81;;;13.38;57.63
2675;BME280;1347;42.122;24.746;2023-11-21T11:41:01;99082.22;;;13.15;58.92
2675;BME280;1347;42.122;24.746;2023-11-21T11:43:31;99075.56;;;12.84;60.37
2675;BME280;1347;42.122;24.746;2023-11-21T11:46:05;99057.50;;;12.72;60.68
2675;BME280;1347;42.122;24.746;2023-11-21T11:48:35;99062.56;;;13.06;60.04
2675;BME280;1347;42.122;24.746;2023-11-21T11:51:05;99057.03;;;13.27;59.18
2675;BME280;1347;42.122;24.746;2023-11-21T11:53:39;99058.25;;;13.19;59.49
2675;BME280;1347;42.122;24.746;2023-11-21T11:56:23;99055.53;;;12.83;61.18
2675;BME280;1347;42.122;24.746;2023-11-21T11:58:54;99053.88;;;13.25;60.04
2675;BME280;1347;42.122;24.746;2023-11-21T12:01:22;99052.72;;;13.30;59.25
2675;BME280;1347;42.122;24.746;2023-11-21T12:04:23;99046.28;;;13.54;59.10
2675;BME280;1347;42.122;24.746;2023-11-21T12:06:57;99038.56;;;13.13;59.27
2675;BME280;1347;42.122;24.746;2023-11-21T12:09:28;99044.56;;;12.69;60.86
2675;BME280;1347;42.122;24.746;2023-11-21T12:11:55;99052.75;;;13.01;59.97
2675;BME280;1347;42.122;24.746;2023-11-21T12:14:24;99048.81;;;13.20;60.02
2675;BME280;1347;42.122;24.746;2023-11-21T12:16:51;99042.91;;;13.07;59.65
2675;BME280;1347;42.122;24.746;2023-11-21T12:19:18;99042.91;;;13.11;59.98
2675;BME280;1347;42.122;24.746;2023-11-21T12:21:46;99038.94;;;13.26;59.19
2675;BME280;1347;42.122;24.746;2023-11-21T12:24:14;99045.53;;;13.46;59.08
2675;BME280;1347;42.122;24.746;2023-11-21T12:26:42;99038.06;;;13.50;59.50
2675;BME280;1347;42.122;24.746;2023-11-21T12:29:09;99058.56;;;13.42;59.07
2675;BME280;1347;42.122;24.746;2023-11-21T12:31:38;99060.44;;;13.63;58.50
2675;BME280;1347;42.122;24.746;2023-11-21T12:34:05;99071.50;;;13.52;58.79
2675;BME280;1347;42.122;24.746;2023-11-21T12:36:32;99070.28;;;13.60;58.61
2675;BME280;1347;42.122;24.746;2023-11-21T12:39:00;99061.78;;;13.19;59.67
2675;BME280;1347;42.122;24.746;2023-11-21T12:41:28;99059.31;;;13.50;58.69
2675;BME280;1347;42.122;24.746;2023-11-21T12:43:56;99048.72;;;13.41;59.48
2675;BME280;1347;42.122;24.746;2023-11-21T12:46:24;99056.91;;;13.59;58.98
2675;BME280;1347;42.122;24.746;2023-11-21T12:48:57;99053.06;;;13.42;59.03
2675;BME280;1347;42.122;24.746;2023-11-21T12:51:23;99055.81;;;13.35;59.56
2675;BME280;1347;42.122;24.746;2023-11-21T12:53:50;99048.75;;;13.34;59.81
2675;BME280;1347;42.122;24.746;2023-11-21T12:56:18;99036.91;;;13.44;59.29
2675;BME280;1347;42.122;24.746;2023-11-21T12:58:48;99020.56;;;12.87;60.17
2675;BME280;1347;42.122;24.746;2023-11-21T13:01:17;99032.22;;;13.38;59.19
2675;BME280;1347;42.122;24.746;2023-11-21T13:03:47;99034.50;;;13.57;58.39
2675;BME280;1347;42.122;24.746;2023-11-21T13:06:18;99016.78;;;13.58;58.89
2675;BME280;1347;42.122;24.746;2023-11-21T13:08:50;99017.84;;;13.75;57.89
2675;BME280;1347;42.122;24.746;2023-11-21T13:11:17;99022.97;;;13.80;58.30
2675;BME280;1347;42.122;24.746;2023-11-21T13:13:44;99027.56;;;13.97;57.42
2675;BME280;1347;42.122;24.746;2023-11-21T13:16:11;99022.78;;;14.05;57.13
2675;BME280;1347;42.122;24.746;2023-11-21T13:18:38;99023.94;;;14.07;56.93
2675;BME280;1347;42.122;24.746;2023-11-21T13:21:08;99022.31;;;14.17;56.90